sensor_id;sensor_type;location;lat;lon;timestamp;pressure;altitude;pressure_sealevel;temperature;humidity
19553;BME280;9420;50.876;7.012;2023-03-04T00:00:19;102110.25;;;9.83;98.15
19553;BME280;9420;50.876;7.012;2023-03-04T00:02:46;102115.53;;;9.84;97.46
19553;BME280;9420;50.876;7.012;2023-03-04T00:05:14;102112.88;;;9.86;98.98
19553;BME280;9420;50.876;7.012;2023-03-04T00:07:41;102116.44;;;9.73;99.67
19553;BME280;9420;50.876;7.012;2023-03-04T00:10:11;102113.66;;;10.04;96.85
19553;BME280;9420;50.876;7.012;2023-03-04T00:12:38;102105.78;;;10.03;97.80
19553;BME280;9420;50.876;7.012;2023-03-04T00:15:07;102118.09;;;9.92;97.68
19553;BME280;9420;50.876;7.012;2023-03-04T00:17:34;102107.50;;;10.04;97.73
19553;BME280;9420;50.876;7.012;2023-03-04T00:20:01;102111.97;;;9.94;97.34
19553;BME280;9420;50.876;7.012;2023-03-04T00:22:29;102110.25;;;9.84;97.94
19553;BME280;9420;50.876;7.012;2023-03-04T00:24:56;102104.88;;;10.13;97.03
19553;BME280;9420;50.876;7.012;2023-03-04T00:27:24;102114.50;;;10.08;96.91
19553;BME280;9420;50.876;7.012;2023-03-04T00:29:51;102112.84;;;9.92;97.43
19553;BME280;9420;50.876;7.012;2023-03-04T00:32:18;102118.06;;;10.01;98.23
19553;BME280;9420;50.876;7.012;2023-03-04T00:34:45;102105.81;;;9.91;99.81
19553;BME280;9420;50.876;7.012;2023-03-04T00:37:12;102100.47;;;10.06;99.11
19553;BME280;9420;50.876;7.012;2023-03-04T00:39:39;102104.00;;;10.12;98.94
19553;BME280;9420;50.876;7.012;2023-03-04T00:42:06;102099.50;;;10.32;96.73
19553;BME280;9420;50.876;7.012;2023-03-04T00:44:35;102098.69;;;10.21;96.03
19553;BME280;9420;50.876;7.012;2023-03-04T00:47:02;102088.13;;;10.26;95.73
19553;BME280;9420;50.876;7.012;2023-03-04T00:49:29;102095.97;;;10.36;95.11
19553;BME280;9420;50.876;7.012;2023-03-04T00:51:56;102088.09;;;10.32;95.45
19553;BME280;9420;50.876;7.012;2023-03-04T00:54:23;102100.38;;;10.30;95.85
19553;BME280;9420;50.876;7.012;2023-03-04T00:56:50;102098.66;;;10.23;96.44
19553;BME280;9420;50.876;7.012;2023-03-04T00:59:17;102092.50;;;10.27;96.64
19553;BME280;9420;50.876;7.012;2023-03-04T01:01:46;102098.44;;;10.56;93.34
19553;BME280;9420;50.876;7.012;2023-03-04T01:04:13;102091.59;;;10.31;95.76
19553;BME280;9420;50.876;7.012;2023-03-04T01:06:40;102093.47;;;10.12;98.54
19553;BME280;9420;50.876;7.012;2023-03-04T01:09:07;102090.81;;;10.15;98.17
19553;BME280;9420;50.876;7.012;2023-03-04T01:11:34;102095.22;;;10.15;97.90
19553;BME280;9420;50.876;7.012;2023-03-04T01:14:01;102087.28;;;10.19;97.70
19553;BME280;9420;50.876;7.012;2023-03-04T01:16:28;102088.88;;;10.43;95.43
19553;BME280;9420;50.876;7.012;2023-03-04T01:18:57;102084.38;;;10.57;93.71
19553;BME280;9420;50.876;7.012;2023-03-04T01:21:24;102078.50;;;10.20;97.34
19553;BME280;9420;50.876;7.012;2023-03-04T01:23:51;102078.44;;;10.32;95.70
19553;BME280;9420;50.876;7.012;2023-03-04T01:26:18;102076.34;;;10.71;93.24
19553;BME280;9420;50.876;7.012;2023-03-04T01:28:45;102073.47;;;10.99;90.20
19553;BME280;9420;50.876;7.012;2023-03-04T01:31:12;102072.19;;;10.47;93.39
19553;BME280;9420;50.876;7.012;2023-03-04T01:33:39;102057.59;;;11.05;90.85
19553;BME280;9420;50.876;7.012;2023-03-04T01:36:07;102061.09;;;11.07;89.76
19553;BME280;9420;50.876;7.012;2023-03-04T01:38:34;102057.69;;;10.93;89.49
19553;BME280;9420;50.876;7.012;2023-03-04T01:41:02;102051.44;;;11.06;89.06
19553;BME280;9420;50.876;7.012;2023-03-04T01:43:30;102056.63;;;11.15;89.52
19553;BME280;9420;50.876;7.012;2023-03-04T01:45:58;102049.09;;;10.76;93.79
19553;BME280;9420;50.876;7.012;2023-03-04T01:48:29;102047.41;;;10.66;95.21
19553;BME280;9420;50.876;7.012;2023-03-04T01:50:59;102042.22;;;10.62;96.24
19553;BME280;9420;50.876;7.012;2023-03-04T01:53:30;102044.25;;;10.28;96.13
19553;BME280;9420;50.876;7.012;2023-03-04T01:56:09;102038.97;;;10.28;97.13
19553;BME280;9420;50.876;7.012;2023-03-04T01:58:37;102034.81;;;9.92;98.96
19553;BME280;9420;50.876;7.012;2023-03-04T02:01:04;102038.81;;;10.46;96.57
19553;BME280;9420;50.876;7.012;2023-03-04T02:03:31;102031.41;;;10.87;93.58
19553;BME280;9420;50.876;7.012;2023-03-04T02:05:58;102033.03;;;11.00;92.33
19553;BME280;9420;50.876;7.012;2023-03-04T02:08:26;102039.34;;;10.86;93.12
19553;BME280;9420;50.876;7.012;2023-03-04T02:10:54;102030.75;;;10.64;94.09
19553;BME280;9420;50.876;7.012;2023-03-04T02:13:22;102036.19;;;10.49;96.71
19553;BME280;9420;50.876;7.012;2023-03-04T02:15:49;102032.41;;;10.77;93.86
19553;BME280;9420;50.876;7.012;2023-03-04T02:18:19;102027.50;;;10.35;94.55
19553;BME280;9420;50.876;7.012;2023-03-04T02:21:03;102029.97;;;10.56;94.50
19553;BME280;9420;50.876;7.012;2023-03-04T02:23:40;102021.00;;;10.75;92.52
19553;BME280;9420;50.876;7.012;2023-03-04T02:26:19;102020.63;;;11.11;89.39
19553;BME280;9420;50.876;7.012;2023-03-04T02:28:49;102023.94;;;11.27;89.68
19553;BME280;9420;50.876;7.012;2023-03-04T02:31:25;102017.16;;;11.09;90.84
19553;BME280;9420;50.876;7.012;2023-03-04T02:33:56;102017.38;;;10.85;92.01
19553;BME280;9420;50.876;7.012;2023-03-04T02:36:25;102007.84;;;10.74;90.79
19553;BME280;9420;50.876;7.012;2023-03-04T02:38:53;102019.47;;;10.50;92.76
19553;BME280;9420;50.876;7.012;2023-03-04T02:41:25;102017.56;;;10.67;92.27
19553;BME280;9420;50.876;7.012;2023-03-04T02:43:54;102012.69;;;11.16;88.14
19553;BME280;9420;50.876;7.012;2023-03-04T02:46:22;102009.00;;;10.47;91.10
19553;BME280;9420;50.876;7.012;2023-03-04T02:48:50;102012.03;;;10.94;90.48
19553;BME280;9420;50.876;7.012;2023-03-04T02:51:18;102009.88;;;11.28;86.58
19553;BME280;9420;50.876;7.012;2023-03-04T02:53:46;102000.09;;;11.38;86.82
19553;BME280;9420;50.876;7.012;2023-03-04T02:56:13;102002.31;;;10.98;88.50
19553;BME280;9420;50.876;7.012;2023-03-04T02:58:41;102005.13;;;10.81;90.80
19553;BME280;9420;50.876;7.012;2023-03-04T03:01:09;102010.66;;;10.54;90.48
19553;BME280;9420;50.876;7.012;2023-03-04T03:03:36;102003.50;;;10.68;90.74
19553;BME280;9420;50.876;7.012;2023-03-04T03:06:03;102001.47;;;10.97;88.05
19553;BME280;9420;50.876;7.012;2023-03-04T03:08:30;102002.25;;;11.04;88.97
19553;BME280;9420;50.876;7.012;2023-03-04T03:10:57;101994.66;;;10.75;89.19
19553;BME280;9420;50.876;7.012;2023-03-04T03:13:24;101995.50;;;10.77;90.41
19553;BME280;9420;50.876;7.012;2023-03-04T03:15:53;101993.75;;;10.79;89.92
19553;BME280;9420;50.876;7.012;2023-03-04T03:18:20;102000.22;;;10.45;91.70
19553;BME280;9420;50.876;7.012;2023-03-04T03:20:47;101988.75;;;10.51;92.08
19553;BME280;9420;50.876;7.012;2023-03-04T03:23:15;101984.19;;;10.66;90.93
19553;BME280;9420;50.876;7.012;2023-03-04T03:25:42;101989.16;;;10.99;89.10
19553;BME280;9420;50.876;7.012;2023-03-04T03:28:10;101992.50;;;11.10;88.02
19553;BME280;9420;50.876;7.012;2023-03-04T03:30:37;101989.38;;;10.78;89.25
19553;BME280;9420;50.876;7.012;2023-03-04T03:33:05;101990.88;;;11.00;88.29
19553;BME280;9420;50.876;7.012;2023-03-04T03:35:32;101982.53;;;10.59;90.53
19553;BME280;9420;50.876;7.012;2023-03-04T03:37:59;101980.69;;;10.67;90.56
19553;BME280;9420;50.876;7.012;2023-03-04T03:40:26;101971.94;;;10.65;89.14
19553;BME280;9420;50.876;7.012;2023-03-04T03:42:54;101977.06;;;10.77;89.58
19553;BME280;9420;50.876;7.012;2023-03-04T03:45:21;101973.72;;;10.60;90.93
19553;BME280;9420;50.876;7.012;2023-03-04T03:47:48;101978.78;;;10.81;89.57
19553;BME280;9420;50.876;7.012;2023-03-04T03:50:17;101974.19;;;11.01;88.50
19553;BME280;9420;50.876;7.012;2023-03-04T03:52:44;101974.72;;;11.28;86.78
19553;BME280;9420;50.876;7.012;2023-03-04T03:55:11;101967.72;;;11.27;86.62
19553;BME280;9420;50.876;7.012;2023-03-04T03:57:38;101972.50;;;11.63;84.50
19553;BME280;9420;50.876;7.012;2023-03-04T04:00:11;101967.19;;;11.66;84.24
19553;BME280;9420;50.876;7.012;2023-03-04T04:02:38;101967.13;;;11.72;83.07
19553;BME280;9420;50.876;7.012;2023-03-04T04:05:08;101970.84;;;11.56;84.03
19553;BME280;9420;50.876;7.012;2023-03-04T04:07:37;101961.75;;;11.12;86.14
19553;BME280;9420;50.876;7.012;2023-03-04T04:10:05;101965.94;;;11.29;86.16
19553;BME280;9420;50.876;7.012;2023-03-04T04:12:33;101975.16;;;10.93;88.39
19553;BME280;9420;50.876;7.012;2023-03-04T04:15:00;101967.75;;;11.24;86.01
19553;BME280;9420;50.876;7.012;2023-03-04T04:17:27;101968.97;;;11.64;84.14
19553;BME280;9420;50.876;7.012;2023-03-04T04:19:54;101969.84;;;11.67;84.49
19553;BME280;9420;50.876;7.012;2023-03-04T04:22:21;101967.16;;;11.00;85.24
19553;BME280;9420;50.876;7.012;2023-03-04T04:24:50;101968.00;;;11.02;87.97
19553;BME280;9420;50.876;7.012;2023-03-04T04:27:17;101966.63;;;10.68;89.49
19553;BME280;9420;50.876;7.012;2023-03-04T04:29:44;101975.28;;;10.81;89.87
19553;BME280;9420;50.876;7.012;2023-03-04T04:32:11;101968.09;;;10.96;88.77
19553;BME280;9420;50.876;7.012;2023-03-04T04:34:38;101966.13;;;11.13;88.12
19553;BME280;9420;50.876;7.012;2023-03-04T04:37:05;101969.78;;;11.03;89.02
19553;BME280;9420;50.876;7.012;2023-03-04T04:39:32;101965.28;;;11.11;88.19
19553;BME280;9420;50.876;7.012;2023-03-04T04:42:01;101960.47;;;10.69;90.07
19553;BME280;9420;50.876;7.012;2023-03-04T04:44:28;101967.63;;;10.60;91.21
19553;BME280;9420;50.876;7.012;2023-03-04T04:46:55;101970.16;;;10.67;92.22
19553;BME280;9420;50.876;7.012;2023-03-04T04:49:22;101967.47;;;10.72;91.32
19553;BME280;9420;50.876;7.012;2023-03-04T04:51:49;101971.50;;;11.04;89.77
19553;BME280;9420;50.876;7.012;2023-03-04T04:54:16;101965.53;;;10.87;90.43
19553;BME280;9420;50.876;7.012;2023-03-04T04:56:43;101958.25;;;11.10;89.37
19553;BME280;9420;50.876;7.012;2023-03-04T04:59:11;101969.28;;;10.67;91.28
19553;BME280;9420;50.876;7.012;2023-03-04T05:01:38;101970.06;;;10.76;91.86
19553;BME280;9420;50.876;7.012;2023-03-04T05:04:06;101969.38;;;10.59;93.07
19553;BME280;9420;50.876;7.012;2023-03-04T05:06:33;101965.91;;;11.32;89.50
19553;BME280;9420;50.876;7.012;2023-03-04T05:09:00;101971.50;;;11.74;84.83
19553;BME280;9420;50.876;7.012;2023-03-04T05:11:27;101970.97;;;11.47;85.65
19553;BME280;9420;50.876;7.012;2023-03-04T05:13:55;101968.75;;;11.15;87.73
19553;BME280;9420;50.876;7.012;2023-03-04T05:16:23;101967.19;;;10.99;89.70
19553;BME280;9420;50.876;7.012;2023-03-04T05:18:50;101969.78;;;11.00;89.85
19553;BME280;9420;50.876;7.012;2023-03-04T05:21:17;101969.16;;;10.79;90.48
19553;BME280;9420;50.876;7.012;2023-03-04T05:23:44;101968.25;;;10.81;92.25
19553;BME280;9420;50.876;7.012;2023-03-04T05:26:16;101969.25;;;10.70;93.07
19553;BME280;9420;50.876;7.012;2023-03-04T05:28:44;101975.13;;;10.97;91.08
19553;BME280;9420;50.876;7.012;2023-03-04T05:31:11;101966.44;;;10.86;91.57
19553;BME280;9420;50.876;7.012;2023-03-04T05:33:40;101967.13;;;11.03;90.03
19553;BME280;9420;50.876;7.012;2023-03-04T05:36:08;101967.31;;;11.57;87.31
19553;BME280;9420;50.876;7.012;2023-03-04T05:38:36;101967.00;;;11.81;84.70
19553;BME280;9420;50.876;7.012;2023-03-04T05:41:05;101963.09;;;12.06;82.57
19553;BME280;9420;50.876;7.012;2023-03-04T05:43:34;101969.56;;;11.87;84.30
19553;BME280;9420;50.876;7.012;2023-03-04T05:46:04;101968.63;;;11.91;84.87
19553;BME280;9420;50.876;7.012;2023-03-04T05:48:31;101976.13;;;11.56;85.76
19553;BME280;9420;50.876;7.012;2023-03-04T05:51:01;101973.78;;;11.97;82.57
19553;BME280;9420;50.876;7.012;2023-03-04T05:53:29;101983.31;;;11.45;84.34
19553;BME280;9420;50.876;7.012;2023-03-04T05:55:57;101985.13;;;11.40;85.67
19553;BME280;9420;50.876;7.012;2023-03-04T05:58:24;101983.41;;;11.36;86.18
19553;BME280;9420;50.876;7.012;2023-03-04T06:00:51;101977.00;;;11.58;84.90
19553;BME280;9420;50.876;7.012;2023-03-04T06:03:21;101973.41;;;11.62;84.95
19553;BME280;9420;50.876;7.012;2023-03-04T06:05:48;101979.63;;;11.58;84.41
19553;BME280;9420;50.876;7.012;2023-03-04T06:08:17;101977.41;;;11.23;86.31
19553;BME280;9420;50.876;7.012;2023-03-04T06:10:44;101986.81;;;11.47;86.09
19553;BME280;9420;50.876;7.012;2023-03-04T06:13:12;101982.69;;;11.91;82.37
19553;BME280;9420;50.876;7.012;2023-03-04T06:15:39;101980.97;;;11.89;82.08
19553;BME280;9420;50.876;7.012;2023-03-04T06:18:07;101986.59;;;11.62;84.63
19553;BME280;9420;50.876;7.012;2023-03-04T06:20:34;101986.47;;;11.74;82.36
19553;BME280;9420;50.876;7.012;2023-03-04T06:23:02;101979.72;;;11.52;86.05
19553;BME280;9420;50.876;7.012;2023-03-04T06:25:30;101988.94;;;11.17;86.48
19553;BME280;9420;50.876;7.012;2023-03-04T06:27:59;101984.28;;;11.36;86.47
19553;BME280;9420;50.876;7.012;2023-03-04T06:30:26;101994.09;;;11.27;86.71
19553;BME280;9420;50.876;7.012;2023-03-04T06:32:53;101995.88;;;11.25;87.85
19553;BME280;9420;50.876;7.012;2023-03-04T06:35:20;101991.44;;;11.95;84.10
19553;BME280;9420;50.876;7.012;2023-03-04T06:37:47;101985.94;;;12.07;81.65
19553;BME280;9420;50.876;7.012;2023-03-04T06:40:15;102001.78;;;11.42;84.70
19553;BME280;9420;50.876;7.012;2023-03-04T06:42:43;102005.34;;;11.41;85.44
19553;BME280;9420;50.876;7.012;2023-03-04T06:45:11;101997.25;;;11.53;86.40
19553;BME280;9420;50.876;7.012;2023-03-04T06:47:38;101999.13;;;11.45;85.81
19553;BME280;9420;50.876;7.012;2023-03-04T06:50:06;102005.91;;;11.64;85.34
19553;BME280;9420;50.876;7.012;2023-03-04T06:52:33;102005.19;;;11.53;85.62
19553;BME280;9420;50.876;7.012;2023-03-04T06:55:00;102009.25;;;11.08;87.28
19553;BME280;9420;50.876;7.012;2023-03-04T06:57:27;102012.63;;;11.89;86.45
19553;BME280;9420;50.876;7.012;2023-03-04T06:59:56;102007.44;;;11.83;84.08
19553;BME280;9420;50.876;7.012;2023-03-04T07:02:23;102012.44;;;12.01;83.80
19553;BME280;9420;50.876;7.012;2023-03-04T07:04:50;102008.75;;;11.49;85.22
19553;BME280;9420;50.876;7.012;2023-03-04T07:07:18;102014.47;;;11.14;88.30
19553;BME280;9420;50.876;7.012;2023-03-04T07:09:44;102011.78;;;11.15;87.59
19553;BME280;9420;50.876;7.012;2023-03-04T07:12:11;102013.66;;;11.04;87.49
19553;BME280;9420;50.876;7.012;2023-03-04T07:14:39;102015.06;;;11.36;87.82
19553;BME280;9420;50.876;7.012;2023-03-04T07:17:07;102015.69;;;11.54;86.54
19553;BME280;9420;50.876;7.012;2023-03-04T07:19:34;102018.00;;;11.11;88.60
19553;BME280;9420;50.876;7.012;2023-03-04T07:22:02;102022.44;;;11.08;88.91
19553;BME280;9420;50.876;7.012;2023-03-04T07:24:29;102015.31;;;11.16;90.21
19553;BME280;9420;50.876;7.012;2023-03-04T07:26:56;102026.38;;;11.44;88.39
19553;BME280;9420;50.876;7.012;2023-03-04T07:29:23;102027.53;;;11.25;90.11
19553;BME280;9420;50.876;7.012;2023-03-04T07:31:50;102031.94;;;11.23;88.66
19553;BME280;9420;50.876;7.012;2023-03-04T07:34:19;102034.88;;;11.70;85.34
19553;BME280;9420;50.876;7.012;2023-03-04T07:36:46;102032.28;;;11.64;87.34
19553;BME280;9420;50.876;7.012;2023-03-04T07:39:13;102029.50;;;11.77;86.37
19553;BME280;9420;50.876;7.012;2023-03-04T07:41:41;102031.66;;;12.12;82.78
19553;BME280;9420;50.876;7.012;2023-03-04T07:44:11;102038.44;;;11.63;87.00
19553;BME280;9420;50.876;7.012;2023-03-04T07:46:39;102036.63;;;11.71;87.17
19553;BME280;9420;50.876;7.012;2023-03-04T07:49:07;102044.41;;;11.80;85.83
19553;BME280;9420;50.876;7.012;2023-03-04T07:51:35;102044.44;;;11.78;84.92
19553;BME280;9420;50.876;7.012;2023-03-04T07:54:02;102044.09;;;12.04;84.13
19553;BME280;9420;50.876;7.012;2023-03-04T07:56:33;102040.25;;;12.23;83.15
19553;BME280;9420;50.876;7.012;2023-03-04T07:59:01;102037.53;;;12.28;81.22
19553;BME280;9420;50.876;7.012;2023-03-04T08:01:30;102033.69;;;12.50;82.22
19553;BME280;9420;50.876;7.012;2023-03-04T08:03:58;102036.88;;;12.15;84.27
19553;BME280;9420;50.876;7.012;2023-03-04T08:06:27;102031.16;;;12.42;80.95
19553;BME280;9420;50.876;7.012;2023-03-04T08:08:58;102036.75;;;12.21;81.56
19553;BME280;9420;50.876;7.012;2023-03-04T08:11:28;102037.56;;;12.26;81.90
19553;BME280;9420;50.876;7.012;2023-03-04T08:13:56;102039.91;;;11.88;82.57
19553;BME280;9420;50.876;7.012;2023-03-04T08:16:25;102047.59;;;12.06;83.09
19553;BME280;9420;50.876;7.012;2023-03-04T08:18:55;102047.69;;;12.00;81.60
19553;BME280;9420;50.876;7.012;2023-03-04T08:21:24;102040.22;;;12.80;79.09
19553;BME280;9420;50.876;7.012;2023-03-04T08:23:52;102046.72;;;12.03;81.53
19553;BME280;9420;50.876;7.012;2023-03-04T08:26:24;102045.72;;;12.11;81.79
19553;BME280;9420;50.876;7.012;2023-03-04T08:28:53;102045.91;;;11.99;82.21
19553;BME280;9420;50.876;7.012;2023-03-04T08:31:21;102040.50;;;12.63;79.50
19553;BME280;9420;50.876;7.012;2023-03-04T08:33:48;102047.69;;;11.97;81.25
19553;BME280;9420;50.876;7.012;2023-03-04T08:36:16;102048.28;;;12.19;81.61
19553;BME280;9420;50.876;7.012;2023-03-04T08:38:43;102052.78;;;12.12;81.07
19553;BME280;9420;50.876;7.012;2023-03-04T08:41:10;102053.34;;;11.70;83.58
19553;BME280;9420;50.876;7.012;2023-03-04T08:43:38;102044.13;;;12.01;83.11
19553;BME280;9420;50.876;7.012;2023-03-04T08:46:06;102054.88;;;11.86;83.21
19553;BME280;9420;50.876;7.012;2023-03-04T08:48:33;102061.03;;;11.86;84.42
19553;BME280;9420;50.876;7.012;2023-03-04T08:51:06;102053.00;;;11.95;83.90
19553;BME280;9420;50.876;7.012;2023-03-04T08:53:33;102059.00;;;12.61;81.06
19553;BME280;9420;50.876;7.012;2023-03-04T08:56:00;102063.63;;;11.91;86.08
19553;BME280;9420;50.876;7.012;2023-03-04T08:58:27;102058.91;;;12.67;81.14
19553;BME280;9420;50.876;7.012;2023-03-04T09:00:58;102068.09;;;11.86;85.41
19553;BME280;9420;50.876;7.012;2023-03-04T09:03:26;102059.66;;;12.22;84.00
19553;BME280;9420;50.876;7.012;2023-03-04T09:05:54;102053.84;;;11.28;89.39
19553;BME280;9420;50.876;7.012;2023-03-04T09:08:21;102053.34;;;12.31;85.49
19553;BME280;9420;50.876;7.012;2023-03-04T09:10:52;102067.22;;;11.84;86.17
19553;BME280;9420;50.876;7.012;2023-03-04T09:13:19;102050.56;;;11.07;89.63
19553;BME280;9420;50.876;7.012;2023-03-04T09:15:49;102054.72;;;11.25;92.03
19553;BME280;9420;50.876;7.012;2023-03-04T09:18:21;102052.09;;;11.27;93.53
19553;BME280;9420;50.876;7.012;2023-03-04T09:20:50;102050.31;;;11.98;89.96
19553;BME280;9420;50.876;7.012;2023-03-04T09:23:18;102047.00;;;12.42;88.12
19553;BME280;9420;50.876;7.012;2023-03-04T09:25:46;102056.56;;;11.93;91.17
19553;BME280;9420;50.876;7.012;2023-03-04T09:28:15;102057.88;;;12.21;89.46
19553;BME280;9420;50.876;7.012;2023-03-04T09:30:43;102052.19;;;12.48;88.04
19553;BME280;9420;50.876;7.012;2023-03-04T09:33:10;102053.88;;;11.94;91.06
19553;BME280;9420;50.876;7.012;2023-03-04T09:35:39;102057.53;;;12.45;88.75
19553;BME280;9420;50.876;7.012;2023-03-04T09:38:07;102053.06;;;12.49;90.21
19553;BME280;9420;50.876;7.012;2023-03-04T09:40:40;102053.47;;;12.76;86.97
19553;BME280;9420;50.876;7.012;2023-03-04T09:43:17;102050.94;;;13.21;83.94
19553;BME280;9420;50.876;7.012;2023-03-04T09:45:50;102051.78;;;13.66;82.23
19553;BME280;9420;50.876;7.012;2023-03-04T09:48:22;102041.91;;;14.50;78.50
19553;BME280;9420;50.876;7.012;2023-03-04T09:51:18;102044.06;;;13.11;79.85
19553;BME280;9420;50.876;7.012;2023-03-04T09:54:04;102038.88;;;13.90;82.13
19553;BME280;9420;50.876;7.012;2023-03-04T09:56:36;102047.06;;;13.37;82.18
19553;BME280;9420;50.876;7.012;2023-03-04T09:59:14;102039.22;;;13.75;83.09
19553;BME280;9420;50.876;7.012;2023-03-04T10:01:48;102046.88;;;13.00;84.20
19553;BME280;9420;50.876;7.012;2023-03-04T10:04:28;102044.06;;;13.11;84.42
19553;BME280;9420;50.876;7.012;2023-03-04T10:06:57;102039.94;;;12.93;87.48
19553;BME280;9420;50.876;7.012;2023-03-04T10:09:28;102030.53;;;13.69;83.23
19553;BME280;9420;50.876;7.012;2023-03-04T10:12:03;102031.13;;;13.81;81.92
19553;BME280;9420;50.876;7.012;2023-03-04T10:14:41;102033.50;;;13.11;84.03
19553;BME280;9420;50.876;7.012;2023-03-04T10:17:16;102029.19;;;14.27;78.83
19553;BME280;9420;50.876;7.012;2023-03-04T10:19:56;102023.16;;;14.58;75.43
19553;BME280;9420;50.876;7.012;2023-03-04T10:22:34;102023.97;;;13.86;76.96
19553;BME280;9420;50.876;7.012;2023-03-04T10:25:15;102042.19;;;13.16;80.26
19553;BME280;9420;50.876;7.012;2023-03-04T10:27:50;102037.03;;;12.59;83.10
19553;BME280;9420;50.876;7.012;2023-03-04T10:30:31;102029.22;;;13.01;83.67
19553;BME280;9420;50.876;7.012;2023-03-04T10:33:11;102026.59;;;12.52;84.39
19553;BME280;9420;50.876;7.012;2023-03-04T10:35:38;102025.91;;;13.37;82.21
19553;BME280;9420;50.876;7.012;2023-03-04T10:38:12;102013.59;;;14.15;78.34
19553;BME280;9420;50.876;7.012;2023-03-04T10:40:41;102022.66;;;14.05;76.17
19553;BME280;9420;50.876;7.012;2023-03-04T10:43:15;102024.91;;;13.44;77.11
19553;BME280;9420;50.876;7.012;2023-03-04T10:45:43;102011.25;;;14.40;74.77
19553;BME280;9420;50.876;7.012;2023-03-04T10:48:20;102017.75;;;13.05;81.34
19553;BME280;9420;50.876;7.012;2023-03-04T10:50:47;102020.13;;;12.69;89.52
19553;BME280;9420;50.876;7.012;2023-03-04T10:53:29;102024.50;;;12.70;91.33
19553;BME280;9420;50.876;7.012;2023-03-04T10:55:59;102018.88;;;13.77;89.58
19553;BME280;9420;50.876;7.012;2023-03-04T10:58:27;102020.25;;;13.55;88.10
19553;BME280;9420;50.876;7.012;2023-03-04T11:01:04;102018.28;;;12.74;90.21
19553;BME280;9420;50.876;7.012;2023-03-04T11:03:34;102007.66;;;12.77;91.11
19553;BME280;9420;50.876;7.012;2023-03-04T11:06:11;102010.50;;;13.95;85.07
19553;BME280;9420;50.876;7.012;2023-03-04T11:08:41;101991.06;;;15.31;78.34
19553;BME280;9420;50.876;7.012;2023-03-04T11:11:30;102000.84;;;14.32;76.44
19553;BME280;9420;50.876;7.012;2023-03-04T11:14:03;102012.13;;;13.63;80.86
19553;BME280;9420;50.876;7.012;2023-03-04T11:16:36;101996.38;;;13.96;81.81
19553;BME280;9420;50.876;7.012;2023-03-04T11:19:12;102007.50;;;13.72;84.41
19553;BME280;9420;50.876;7.012;2023-03-04T11:21:40;102007.44;;;13.35;90.87
19553;BME280;9420;50.876;7.012;2023-03-04T11:24:13;102007.06;;;13.52;96.00
19553;BME280;9420;50.876;7.012;2023-03-04T11:26:46;102002.59;;;13.13;97.98
19553;BME280;9420;50.876;7.012;2023-03-04T11:29:19;102000.75;;;13.59;97.65
19553;BME280;9420;50.876;7.012;2023-03-04T11:31:55;102002.94;;;13.39;95.60
19553;BME280;9420;50.876;7.012;2023-03-04T11:34:35;101988.59;;;14.25;95.50
19553;BME280;9420;50.876;7.012;2023-03-04T11:37:11;101978.66;;;15.92;83.09
19553;BME280;9420;50.876;7.012;2023-03-04T11:39:51;101976.06;;;16.16;82.04
19553;BME280;9420;50.876;7.012;2023-03-04T11:42:30;101978.13;;;16.34;76.50
19553;BME280;9420;50.876;7.012;2023-03-04T11:45:00;101971.97;;;15.78;77.05
19553;BME280;9420;50.876;7.012;2023-03-04T11:47:43;101973.81;;;15.76;78.50
19553;BME280;9420;50.876;7.012;2023-03-04T11:50:28;101975.50;;;14.88;78.63
19553;BME280;9420;50.876;7.012;2023-03-04T11:53:30;101975.97;;;14.38;79.93
19553;BME280;9420;50.876;7.012;2023-03-04T11:56:29;101960.34;;;14.61;79.49
19553;BME280;9420;50.876;7.012;2023-03-04T11:59:35;101958.16;;;14.06;80.48
19553;BME280;9420;50.876;7.012;2023-03-04T12:02:19;101966.91;;;14.11;81.13
19553;BME280;9420;50.876;7.012;2023-03-04T12:05:18;101957.75;;;14.60;80.12
19553;BME280;9420;50.876;7.012;2023-03-04T12:08:09;101958.97;;;13.73;83.61
19553;BME280;9420;50.876;7.012;2023-03-04T12:10:50;101955.78;;;13.57;84.43
19553;BME280;9420;50.876;7.012;2023-03-04T12:14:10;101941.25;;;14.13;81.57
19553;BME280;9420;50.876;7.012;2023-03-04T12:17:21;101944.22;;;13.63;82.43
19553;BME280;9420;50.876;7.012;2023-03-04T12:20:17;101941.03;;;14.56;77.91
19553;BME280;9420;50.876;7.012;2023-03-04T12:22:58;101932.88;;;13.93;80.27
19553;BME280;9420;50.876;7.012;2023-03-04T12:25:40;101940.94;;;13.52;83.85
19553;BME280;9420;50.876;7.012;2023-03-04T12:28:41;101923.44;;;13.45;83.46
19553;BME280;9420;50.876;7.012;2023-03-04T12:31:32;101923.28;;;13.51;83.70
19553;BME280;9420;50.876;7.012;2023-03-04T12:34:32;101921.38;;;13.59;84.27
19553;BME280;9420;50.876;7.012;2023-03-04T12:37:37;101909.56;;;13.74;81.42
19553;BME280;9420;50.876;7.012;2023-03-04T12:40:37;101906.78;;;14.49;79.56
19553;BME280;9420;50.876;7.012;2023-03-04T12:46:10;101899.16;;;14.99;74.81
19553;BME280;9420;50.876;7.012;2023-03-04T12:48:50;101897.44;;;14.68;77.38
19553;BME280;9420;50.876;7.012;2023-03-04T12:51:31;101896.94;;;14.18;77.46
19553;BME280;9420;50.876;7.012;2023-03-04T12:54:20;101898.03;;;14.77;75.65
19553;BME280;9420;50.876;7.012;2023-03-04T12:56:56;101890.72;;;14.55;76.12
19553;BME280;9420;50.876;7.012;2023-03-04T12:59:28;101889.63;;;14.29;78.10
19553;BME280;9420;50.876;7.012;2023-03-04T13:02:24;101885.81;;;14.40;75.31
19553;BME280;9420;50.876;7.012;2023-03-04T13:05:03;101879.53;;;14.44;75.37
19553;BME280;9420;50.876;7.012;2023-03-04T13:07:47;101882.00;;;13.82;77.74
19553;BME280;9420;50.876;7.012;2023-03-04T13:10:21;101873.91;;;14.56;77.38
19553;BME280;9420;50.876;7.012;2023-03-04T13:12:52;101870.63;;;14.12;74.25
19553;BME280;9420;50.876;7.012;2023-03-04T13:15:32;101872.78;;;14.32;77.31
19553;BME280;9420;50.876;7.012;2023-03-04T13:18:03;101862.63;;;14.48;76.72
19553;BME280;9420;50.876;7.012;2023-03-04T13:21:19;101858.28;;;15.06;71.23
19553;BME280;9420;50.876;7.012;2023-03-04T13:23:49;101863.97;;;14.64;75.55